Impacts METAR Board
IDs:

KBOS - Boston/Logan Intl, MA, US

Updated at: 0000 UTC 27 Apr 2018
Potential Impact None Slight Moderate High
Time 26/12Z 26/13Z 26/14Z 26/15Z 26/16Z 26/17Z 26/18Z 26/19Z 26/20Z 26/21Z 26/22Z 26/23Z 27/00Z
Temp52 57 58 61 65 66 65 67 67 66 64 61 59
Dewpt52 56 56 56 55 52 49 45 41 41 40 40 40
Altim29.58 29.57 29.57 29.58 29.59 29.59 29.60 29.61 29.62 29.65 29.69 29.72 29.75
VIS1 10 10 10 10 10 10 10 10 10 10 10 10
CIG17 7 7 11 23 -- -- -- -- -- -- -- --
CoverOVCOVCOVCBKNBKNSCTSCTSCTFEWFEWFEWFEWFEW
FltCatIFRIFRIFRMVFRMVFRVFRVFRVFRVFRVFRVFRVFRVFR
WX-RA BR------------------------
WDir150210220290280250270260270280280270270
WSpd4 9 10 8 10 11 14 13 17 15 15 20 15
WGst-- -- -- 17 -- -- -- 24 23 25 21 26 20
Raw hourly METARs
KBOS 261154Z 15004KT 1SM R04R/2600V3500FT -RA BR FEW006 BKN017 OVC070 11/11 A2958 RMK AO2 SLP014 P0009 60021 70090 T01110111 10128 20100 56001
KBOS 261254Z 21009KT 10SM OVC007 14/13 A2957 RMK AO2 RAE26 SLP011 P0000 T01390133
KBOS 261354Z 22010KT 10SM OVC007 14/13 A2957 RMK AO2 SLP012 T01440133
KBOS 261454Z 29008G17KT 10SM BKN011 BKN018 BKN029 BKN200 16/13 A2958 RMK AO2 RAB41E50 SLP017 P0000 60000 T01610133 53002
KBOS 261554Z 28010KT 10SM BKN023 BKN028 18/13 A2959 RMK AO2 SLP018 T01830128
KBOS 261654Z 25011KT 10SM SCT030 SCT039 19/11 A2959 RMK AO2 SLP018 T01890111
KBOS 261754Z 27014KT 10SM FEW041 SCT050 18/09 A2960 RMK AO2 SLP022 60000 T01830094 10200 20111 53005
KBOS 261854Z 26013G24KT 10SM SCT045 19/07 A2961 RMK AO2 SLP025 T01940072
KBOS 261954Z 27017G23KT 10SM FEW050 19/05 A2962 RMK AO2 SLP031 T01940050
KBOS 262054Z COR 28015G25KT 10SM FEW050 19/05 A2965 RMK AO2 PK WND 27026/2043 SLP040 T01890050 53018
KBOS 262154Z 28015G21KT 10SM FEW050 18/04 A2969 RMK AO2 PK WND 27026/2128 SLP052 T01780044
KBOS 262254Z 27020G26KT 10SM FEW055 16/04 A2972 RMK AO2 PK WND 27026/2246 SLP063 T01610044
KBOS 262354Z 27015G20KT 10SM FEW050 FEW140 15/04 A2975 RMK AO2 SLP074 T01500044 10200 20150 51034



Page loaded:  00:48 UTC  |   05:48 PM Pacific  |   06:48 PM Mountain  |   07:48 PM Central  |   08:48 PM Eastern

 

ADVISORIES

FORECASTS

FORECASTS

OBSERVATIONS

USER TOOLS

ABOUT US